sensor_id;sensor_type;location;lat;lon;timestamp;P1;durP1;ratioP1;P2;durP2;ratioP2
38312;SDS011;24114;52.260;6.714;2023-04-29T00:00:53;41.03;;;31.52;;
38312;SDS011;24114;52.260;6.714;2023-04-29T00:03:22;41.35;;;32.03;;
38312;SDS011;24114;52.260;6.714;2023-04-29T00:05:54;40.33;;;33.22;;
38312;SDS011;24114;52.260;6.714;2023-04-29T00:08:23;40.97;;;33.95;;
38312;SDS011;24114;52.260;6.714;2023-04-29T00:10:50;41.75;;;32.83;;
38312;SDS011;24114;52.260;6.714;2023-04-29T00:13:18;40.20;;;33.15;;
38312;SDS011;24114;52.260;6.714;2023-04-29T00:15:46;41.20;;;32.87;;
38312;SDS011;24114;52.260;6.714;2023-04-29T00:18:14;41.42;;;33.65;;
38312;SDS011;24114;52.260;6.714;2023-04-29T00:20:45;39.67;;;33.38;;
38312;SDS011;24114;52.260;6.714;2023-04-29T00:23:13;41.63;;;35.20;;
38312;SDS011;24114;52.260;6.714;2023-04-29T00:25:41;45.20;;;35.03;;
38312;SDS011;24114;52.260;6.714;2023-04-29T00:28:11;46.67;;;36.00;;
38312;SDS011;24114;52.260;6.714;2023-04-29T00:30:39;45.45;;;35.55;;
38312;SDS011;24114;52.260;6.714;2023-04-29T00:33:06;45.47;;;35.67;;
38312;SDS011;24114;52.260;6.714;2023-04-29T00:35:34;46.72;;;36.33;;
38312;SDS011;24114;52.260;6.714;2023-04-29T00:38:03;47.35;;;36.75;;
38312;SDS011;24114;52.260;6.714;2023-04-29T00:40:32;48.03;;;37.27;;
38312;SDS011;24114;52.260;6.714;2023-04-29T00:43:01;47.13;;;37.53;;
38312;SDS011;24114;52.260;6.714;2023-04-29T00:45:29;49.92;;;37.78;;
38312;SDS011;24114;52.260;6.714;2023-04-29T00:47:57;44.43;;;36.50;;
38312;SDS011;24114;52.260;6.714;2023-04-29T00:50:25;46.95;;;36.97;;
38312;SDS011;24114;52.260;6.714;2023-04-29T00:52:53;44.58;;;36.05;;
38312;SDS011;24114;52.260;6.714;2023-04-29T00:55:23;45.03;;;35.92;;
38312;SDS011;24114;52.260;6.714;2023-04-29T00:57:52;45.13;;;36.95;;
38312;SDS011;24114;52.260;6.714;2023-04-29T01:00:20;45.15;;;35.70;;
38312;SDS011;24114;52.260;6.714;2023-04-29T01:02:51;42.93;;;35.53;;
38312;SDS011;24114;52.260;6.714;2023-04-29T01:05:22;45.33;;;36.63;;
38312;SDS011;24114;52.260;6.714;2023-04-29T01:07:53;45.70;;;35.13;;
38312;SDS011;24114;52.260;6.714;2023-04-29T01:10:27;43.23;;;35.30;;
38312;SDS011;24114;52.260;6.714;2023-04-29T01:12:58;43.63;;;34.67;;
38312;SDS011;24114;52.260;6.714;2023-04-29T01:15:32;41.55;;;33.63;;
38312;SDS011;24114;52.260;6.714;2023-04-29T01:18:04;41.80;;;33.80;;
38312;SDS011;24114;52.260;6.714;2023-04-29T01:20:37;42.35;;;33.70;;
38312;SDS011;24114;52.260;6.714;2023-04-29T01:23:05;39.90;;;33.25;;
38312;SDS011;24114;52.260;6.714;2023-04-29T01:25:34;39.63;;;32.22;;
38312;SDS011;24114;52.260;6.714;2023-04-29T01:28:04;36.75;;;32.20;;
38312;SDS011;24114;52.260;6.714;2023-04-29T01:30:39;39.53;;;32.05;;
38312;SDS011;24114;52.260;6.714;2023-04-29T01:33:13;38.65;;;32.13;;
38312;SDS011;24114;52.260;6.714;2023-04-29T01:35:44;38.83;;;31.42;;
38312;SDS011;24114;52.260;6.714;2023-04-29T01:38:25;35.20;;;29.85;;
38312;SDS011;24114;52.260;6.714;2023-04-29T01:41:01;35.47;;;29.48;;
38312;SDS011;24114;52.260;6.714;2023-04-29T01:43:36;33.43;;;28.97;;
38312;SDS011;24114;52.260;6.714;2023-04-29T01:46:05;36.22;;;29.67;;
38312;SDS011;24114;52.260;6.714;2023-04-29T01:48:36;33.42;;;28.92;;
38312;SDS011;24114;52.260;6.714;2023-04-29T01:51:06;34.53;;;28.50;;
38312;SDS011;24114;52.260;6.714;2023-04-29T01:53:37;31.65;;;27.45;;
38312;SDS011;24114;52.260;6.714;2023-04-29T01:56:08;30.83;;;27.27;;
38312;SDS011;24114;52.260;6.714;2023-04-29T01:58:36;30.58;;;27.05;;
38312;SDS011;24114;52.260;6.714;2023-04-29T02:01:04;32.55;;;27.02;;
38312;SDS011;24114;52.260;6.714;2023-04-29T02:03:32;29.55;;;26.17;;
38312;SDS011;24114;52.260;6.714;2023-04-29T02:06:02;31.92;;;26.98;;
38312;SDS011;24114;52.260;6.714;2023-04-29T02:08:32;31.42;;;26.27;;
38312;SDS011;24114;52.260;6.714;2023-04-29T02:11:00;31.08;;;26.10;;
38312;SDS011;24114;52.260;6.714;2023-04-29T02:13:31;30.58;;;26.33;;
38312;SDS011;24114;52.260;6.714;2023-04-29T02:16:05;29.87;;;26.03;;
38312;SDS011;24114;52.260;6.714;2023-04-29T02:18:34;33.30;;;27.50;;
38312;SDS011;24114;52.260;6.714;2023-04-29T02:21:03;28.83;;;25.73;;
38312;SDS011;24114;52.260;6.714;2023-04-29T02:23:31;31.15;;;26.00;;
38312;SDS011;24114;52.260;6.714;2023-04-29T02:25:59;30.40;;;26.17;;
38312;SDS011;24114;52.260;6.714;2023-04-29T02:28:27;28.98;;;24.90;;
38312;SDS011;24114;52.260;6.714;2023-04-29T02:30:56;28.95;;;25.83;;
38312;SDS011;24114;52.260;6.714;2023-04-29T02:33:23;30.60;;;26.13;;
38312;SDS011;24114;52.260;6.714;2023-04-29T02:35:51;30.00;;;25.60;;
38312;SDS011;24114;52.260;6.714;2023-04-29T02:38:19;29.77;;;26.02;;
38312;SDS011;24114;52.260;6.714;2023-04-29T02:40:47;29.30;;;25.55;;
38312;SDS011;24114;52.260;6.714;2023-04-29T02:43:15;28.58;;;25.52;;
38312;SDS011;24114;52.260;6.714;2023-04-29T02:45:43;28.27;;;24.98;;
38312;SDS011;24114;52.260;6.714;2023-04-29T02:48:13;29.83;;;25.92;;
38312;SDS011;24114;52.260;6.714;2023-04-29T02:50:41;27.80;;;23.95;;
38312;SDS011;24114;52.260;6.714;2023-04-29T02:53:10;26.95;;;23.88;;
38312;SDS011;24114;52.260;6.714;2023-04-29T02:55:38;29.02;;;24.65;;
38312;SDS011;24114;52.260;6.714;2023-04-29T02:58:06;25.98;;;23.00;;
38312;SDS011;24114;52.260;6.714;2023-04-29T03:00:35;27.25;;;23.42;;
38312;SDS011;24114;52.260;6.714;2023-04-29T03:03:03;25.90;;;23.30;;
38312;SDS011;24114;52.260;6.714;2023-04-29T03:05:32;25.92;;;22.58;;
38312;SDS011;24114;52.260;6.714;2023-04-29T03:08:02;25.25;;;22.38;;
38312;SDS011;24114;52.260;6.714;2023-04-29T03:10:32;24.70;;;22.20;;
38312;SDS011;24114;52.260;6.714;2023-04-29T03:13:01;25.73;;;22.30;;
38312;SDS011;24114;52.260;6.714;2023-04-29T03:15:30;25.83;;;22.38;;
38312;SDS011;24114;52.260;6.714;2023-04-29T03:17:58;27.42;;;22.50;;
38312;SDS011;24114;52.260;6.714;2023-04-29T03:20:27;24.42;;;21.83;;
38312;SDS011;24114;52.260;6.714;2023-04-29T03:22:58;25.27;;;21.80;;
38312;SDS011;24114;52.260;6.714;2023-04-29T03:25:27;23.77;;;21.35;;
38312;SDS011;24114;52.260;6.714;2023-04-29T03:27:57;24.55;;;21.42;;
38312;SDS011;24114;52.260;6.714;2023-04-29T03:30:25;23.15;;;20.65;;
38312;SDS011;24114;52.260;6.714;2023-04-29T03:32:53;25.88;;;21.92;;
38312;SDS011;24114;52.260;6.714;2023-04-29T03:35:21;24.05;;;21.55;;
38312;SDS011;24114;52.260;6.714;2023-04-29T03:37:49;25.85;;;22.10;;
38312;SDS011;24114;52.260;6.714;2023-04-29T03:40:18;25.55;;;22.20;;
38312;SDS011;24114;52.260;6.714;2023-04-29T03:42:48;24.77;;;22.08;;
38312;SDS011;24114;52.260;6.714;2023-04-29T03:45:16;23.95;;;21.35;;
38312;SDS011;24114;52.260;6.714;2023-04-29T03:47:43;27.07;;;22.70;;
38312;SDS011;24114;52.260;6.714;2023-04-29T03:50:13;28.02;;;23.63;;
38312;SDS011;24114;52.260;6.714;2023-04-29T03:52:43;25.73;;;22.55;;
38312;SDS011;24114;52.260;6.714;2023-04-29T03:55:13;27.67;;;23.25;;
38312;SDS011;24114;52.260;6.714;2023-04-29T03:57:42;29.25;;;24.38;;
38312;SDS011;24114;52.260;6.714;2023-04-29T04:00:10;27.33;;;23.67;;
38312;SDS011;24114;52.260;6.714;2023-04-29T04:02:39;31.02;;;24.60;;
38312;SDS011;24114;52.260;6.714;2023-04-29T04:05:07;26.80;;;23.90;;
38312;SDS011;24114;52.260;6.714;2023-04-29T04:07:36;29.08;;;23.30;;
38312;SDS011;24114;52.260;6.714;2023-04-29T04:10:04;27.40;;;24.10;;
38312;SDS011;24114;52.260;6.714;2023-04-29T04:12:34;30.30;;;24.98;;
38312;SDS011;24114;52.260;6.714;2023-04-29T04:15:04;27.65;;;24.55;;
38312;SDS011;24114;52.260;6.714;2023-04-29T04:17:32;33.13;;;25.40;;
38312;SDS011;24114;52.260;6.714;2023-04-29T04:20:00;28.43;;;24.13;;
38312;SDS011;24114;52.260;6.714;2023-04-29T04:22:28;30.63;;;24.60;;
38312;SDS011;24114;52.260;6.714;2023-04-29T04:24:58;30.30;;;24.88;;
38312;SDS011;24114;52.260;6.714;2023-04-29T04:27:26;29.95;;;24.83;;
38312;SDS011;24114;52.260;6.714;2023-04-29T04:29:54;28.95;;;24.70;;
38312;SDS011;24114;52.260;6.714;2023-04-29T04:32:23;30.97;;;25.30;;
38312;SDS011;24114;52.260;6.714;2023-04-29T04:34:52;30.15;;;24.38;;
38312;SDS011;24114;52.260;6.714;2023-04-29T04:37:20;28.70;;;24.35;;
38312;SDS011;24114;52.260;6.714;2023-04-29T04:39:47;28.65;;;24.10;;
38312;SDS011;24114;52.260;6.714;2023-04-29T04:42:15;29.33;;;23.97;;
38312;SDS011;24114;52.260;6.714;2023-04-29T04:44:43;28.05;;;24.73;;
38312;SDS011;24114;52.260;6.714;2023-04-29T04:47:11;29.15;;;24.05;;
38312;SDS011;24114;52.260;6.714;2023-04-29T04:49:40;29.75;;;25.23;;
38312;SDS011;24114;52.260;6.714;2023-04-29T04:52:09;29.87;;;24.83;;
38312;SDS011;24114;52.260;6.714;2023-04-29T04:54:39;32.47;;;24.70;;
38312;SDS011;24114;52.260;6.714;2023-04-29T04:57:07;31.77;;;25.00;;
38312;SDS011;24114;52.260;6.714;2023-04-29T04:59:36;30.20;;;24.25;;
38312;SDS011;24114;52.260;6.714;2023-04-29T05:02:04;32.78;;;25.25;;
38312;SDS011;24114;52.260;6.714;2023-04-29T05:04:34;30.87;;;24.27;;
38312;SDS011;24114;52.260;6.714;2023-04-29T05:07:03;31.52;;;25.55;;
38312;SDS011;24114;52.260;6.714;2023-04-29T05:09:31;29.85;;;24.35;;
38312;SDS011;24114;52.260;6.714;2023-04-29T05:11:59;33.75;;;23.95;;
38312;SDS011;24114;52.260;6.714;2023-04-29T05:14:27;29.02;;;23.80;;
38312;SDS011;24114;52.260;6.714;2023-04-29T05:16:57;29.80;;;24.13;;
38312;SDS011;24114;52.260;6.714;2023-04-29T05:19:25;29.48;;;22.73;;
38312;SDS011;24114;52.260;6.714;2023-04-29T05:21:53;29.35;;;22.90;;
38312;SDS011;24114;52.260;6.714;2023-04-29T05:24:22;31.50;;;23.48;;
38312;SDS011;24114;52.260;6.714;2023-04-29T05:26:52;26.97;;;22.27;;
38312;SDS011;24114;52.260;6.714;2023-04-29T05:29:22;32.83;;;23.80;;
38312;SDS011;24114;52.260;6.714;2023-04-29T05:31:52;28.10;;;22.30;;
38312;SDS011;24114;52.260;6.714;2023-04-29T05:34:20;29.27;;;22.92;;
38312;SDS011;24114;52.260;6.714;2023-04-29T05:36:48;25.13;;;21.42;;
38312;SDS011;24114;52.260;6.714;2023-04-29T05:39:15;31.63;;;23.08;;
38312;SDS011;24114;52.260;6.714;2023-04-29T05:41:45;25.65;;;21.58;;
38312;SDS011;24114;52.260;6.714;2023-04-29T05:44:13;29.48;;;23.42;;
38312;SDS011;24114;52.260;6.714;2023-04-29T05:46:41;30.15;;;22.63;;
38312;SDS011;24114;52.260;6.714;2023-04-29T05:49:09;28.23;;;22.20;;
38312;SDS011;24114;52.260;6.714;2023-04-29T05:51:36;24.88;;;21.27;;
38312;SDS011;24114;52.260;6.714;2023-04-29T05:54:06;27.55;;;21.80;;
38312;SDS011;24114;52.260;6.714;2023-04-29T05:56:34;25.88;;;21.58;;
38312;SDS011;24114;52.260;6.714;2023-04-29T05:59:03;25.17;;;20.65;;
38312;SDS011;24114;52.260;6.714;2023-04-29T06:01:31;25.95;;;21.33;;
38312;SDS011;24114;52.260;6.714;2023-04-29T06:03:59;26.95;;;21.35;;
38312;SDS011;24114;52.260;6.714;2023-04-29T06:06:27;25.95;;;21.92;;
38312;SDS011;24114;52.260;6.714;2023-04-29T06:08:55;26.10;;;20.90;;
38312;SDS011;24114;52.260;6.714;2023-04-29T06:11:23;29.70;;;21.47;;
38312;SDS011;24114;52.260;6.714;2023-04-29T06:13:51;25.65;;;20.80;;
38312;SDS011;24114;52.260;6.714;2023-04-29T06:16:20;23.40;;;20.00;;
38312;SDS011;24114;52.260;6.714;2023-04-29T06:18:48;25.23;;;20.40;;
38312;SDS011;24114;52.260;6.714;2023-04-29T06:21:16;27.38;;;21.25;;
38312;SDS011;24114;52.260;6.714;2023-04-29T06:23:43;25.40;;;20.60;;
38312;SDS011;24114;52.260;6.714;2023-04-29T06:26:11;25.52;;;20.55;;
38312;SDS011;24114;52.260;6.714;2023-04-29T06:28:39;27.73;;;21.48;;
38312;SDS011;24114;52.260;6.714;2023-04-29T06:31:07;25.50;;;20.98;;
38312;SDS011;24114;52.260;6.714;2023-04-29T06:33:36;29.30;;;21.37;;
38312;SDS011;24114;52.260;6.714;2023-04-29T06:36:04;25.30;;;21.33;;
38312;SDS011;24114;52.260;6.714;2023-04-29T06:38:32;24.02;;;20.17;;
38312;SDS011;24114;52.260;6.714;2023-04-29T06:41:00;26.08;;;20.60;;
38312;SDS011;24114;52.260;6.714;2023-04-29T06:43:29;23.48;;;20.25;;
38312;SDS011;24114;52.260;6.714;2023-04-29T06:45:57;24.33;;;20.30;;
38312;SDS011;24114;52.260;6.714;2023-04-29T06:48:25;24.83;;;20.15;;
38312;SDS011;24114;52.260;6.714;2023-04-29T06:50:57;25.05;;;19.23;;
38312;SDS011;24114;52.260;6.714;2023-04-29T06:53:25;25.92;;;19.17;;
38312;SDS011;24114;52.260;6.714;2023-04-29T06:55:53;25.27;;;19.77;;
38312;SDS011;24114;52.260;6.714;2023-04-29T06:58:21;25.90;;;19.35;;
38312;SDS011;24114;52.260;6.714;2023-04-29T07:00:49;25.30;;;18.92;;
38312;SDS011;24114;52.260;6.714;2023-04-29T07:03:17;23.27;;;18.65;;
38312;SDS011;24114;52.260;6.714;2023-04-29T07:05:45;23.77;;;18.87;;
38312;SDS011;24114;52.260;6.714;2023-04-29T07:08:15;22.08;;;18.48;;
38312;SDS011;24114;52.260;6.714;2023-04-29T07:10:42;23.13;;;18.02;;
38312;SDS011;24114;52.260;6.714;2023-04-29T07:13:10;23.88;;;18.30;;
38312;SDS011;24114;52.260;6.714;2023-04-29T07:15:38;23.70;;;18.50;;
38312;SDS011;24114;52.260;6.714;2023-04-29T07:18:05;22.38;;;17.92;;
38312;SDS011;24114;52.260;6.714;2023-04-29T07:20:35;22.45;;;18.02;;
38312;SDS011;24114;52.260;6.714;2023-04-29T07:23:03;20.63;;;17.55;;
38312;SDS011;24114;52.260;6.714;2023-04-29T07:25:32;21.33;;;17.37;;
38312;SDS011;24114;52.260;6.714;2023-04-29T07:27:59;22.73;;;17.25;;
38312;SDS011;24114;52.260;6.714;2023-04-29T07:30:27;25.85;;;18.23;;
38312;SDS011;24114;52.260;6.714;2023-04-29T07:32:55;23.85;;;17.70;;
38312;SDS011;24114;52.260;6.714;2023-04-29T07:35:23;19.40;;;16.47;;
38312;SDS011;24114;52.260;6.714;2023-04-29T07:37:50;21.17;;;16.83;;
38312;SDS011;24114;52.260;6.714;2023-04-29T07:40:18;19.70;;;16.70;;
38312;SDS011;24114;52.260;6.714;2023-04-29T07:42:47;20.52;;;16.70;;
38312;SDS011;24114;52.260;6.714;2023-04-29T07:45:15;20.17;;;16.77;;
38312;SDS011;24114;52.260;6.714;2023-04-29T07:47:43;19.85;;;15.52;;
38312;SDS011;24114;52.260;6.714;2023-04-29T07:50:11;18.93;;;15.60;;
38312;SDS011;24114;52.260;6.714;2023-04-29T07:52:39;20.83;;;15.82;;
38312;SDS011;24114;52.260;6.714;2023-04-29T07:55:07;20.20;;;16.27;;
38312;SDS011;24114;52.260;6.714;2023-04-29T07:57:35;19.58;;;15.43;;
38312;SDS011;24114;52.260;6.714;2023-04-29T08:00:05;18.42;;;14.73;;
38312;SDS011;24114;52.260;6.714;2023-04-29T08:02:34;19.48;;;15.65;;
38312;SDS011;24114;52.260;6.714;2023-04-29T08:05:02;19.08;;;15.05;;
38312;SDS011;24114;52.260;6.714;2023-04-29T08:07:31;20.02;;;15.27;;
38312;SDS011;24114;52.260;6.714;2023-04-29T08:09:58;18.30;;;14.48;;
38312;SDS011;24114;52.260;6.714;2023-04-29T08:12:26;16.77;;;13.98;;
38312;SDS011;24114;52.260;6.714;2023-04-29T08:14:54;17.58;;;14.50;;
38312;SDS011;24114;52.260;6.714;2023-04-29T08:17:23;19.58;;;15.13;;
38312;SDS011;24114;52.260;6.714;2023-04-29T08:19:51;18.10;;;13.95;;
38312;SDS011;24114;52.260;6.714;2023-04-29T08:22:18;20.48;;;14.18;;
38312;SDS011;24114;52.260;6.714;2023-04-29T08:24:46;15.77;;;14.07;;
38312;SDS011;24114;52.260;6.714;2023-04-29T08:27:14;17.27;;;14.02;;
38312;SDS011;24114;52.260;6.714;2023-04-29T08:29:42;16.65;;;14.07;;
38312;SDS011;24114;52.260;6.714;2023-04-29T08:32:10;15.40;;;13.70;;
38312;SDS011;24114;52.260;6.714;2023-04-29T08:34:39;17.98;;;13.77;;
38312;SDS011;24114;52.260;6.714;2023-04-29T08:37:07;15.93;;;13.52;;
38312;SDS011;24114;52.260;6.714;2023-04-29T08:39:34;18.33;;;13.65;;
38312;SDS011;24114;52.260;6.714;2023-04-29T08:42:06;15.90;;;12.90;;
38312;SDS011;24114;52.260;6.714;2023-04-29T08:44:34;17.58;;;13.27;;
38312;SDS011;24114;52.260;6.714;2023-04-29T08:47:03;15.75;;;12.68;;
38312;SDS011;24114;52.260;6.714;2023-04-29T08:49:31;16.23;;;12.73;;
38312;SDS011;24114;52.260;6.714;2023-04-29T08:52:00;16.90;;;13.43;;
38312;SDS011;24114;52.260;6.714;2023-04-29T08:54:30;15.30;;;12.95;;
38312;SDS011;24114;52.260;6.714;2023-04-29T08:56:58;14.43;;;12.90;;
38312;SDS011;24114;52.260;6.714;2023-04-29T08:59:27;14.70;;;13.15;;
38312;SDS011;24114;52.260;6.714;2023-04-29T09:01:55;15.30;;;12.63;;
38312;SDS011;24114;52.260;6.714;2023-04-29T09:04:27;15.80;;;13.13;;
38312;SDS011;24114;52.260;6.714;2023-04-29T09:06:57;15.82;;;13.38;;
38312;SDS011;24114;52.260;6.714;2023-04-29T09:09:27;18.23;;;12.40;;
38312;SDS011;24114;52.260;6.714;2023-04-29T09:11:55;16.48;;;12.88;;
38312;SDS011;24114;52.260;6.714;2023-04-29T09:14:23;14.25;;;12.75;;
38312;SDS011;24114;52.260;6.714;2023-04-29T09:16:51;17.48;;;13.00;;
38312;SDS011;24114;52.260;6.714;2023-04-29T09:19:29;15.70;;;13.32;;
38312;SDS011;24114;52.260;6.714;2023-04-29T09:21:58;15.50;;;12.88;;
38312;SDS011;24114;52.260;6.714;2023-04-29T09:24:27;17.15;;;13.40;;
38312;SDS011;24114;52.260;6.714;2023-04-29T09:26:58;16.48;;;14.43;;
38312;SDS011;24114;52.260;6.714;2023-04-29T09:29:28;15.80;;;13.52;;
38312;SDS011;24114;52.260;6.714;2023-04-29T09:31:58;15.23;;;13.55;;
38312;SDS011;24114;52.260;6.714;2023-04-29T09:34:30;16.33;;;12.90;;
38312;SDS011;24114;52.260;6.714;2023-04-29T09:36:58;13.50;;;11.95;;
38312;SDS011;24114;52.260;6.714;2023-04-29T09:39:36;14.82;;;12.05;;
38312;SDS011;24114;52.260;6.714;2023-04-29T09:42:05;14.57;;;11.98;;
38312;SDS011;24114;52.260;6.714;2023-04-29T09:44:34;15.00;;;11.80;;
38312;SDS011;24114;52.260;6.714;2023-04-29T09:47:05;13.60;;;11.80;;
38312;SDS011;24114;52.260;6.714;2023-04-29T09:49:36;12.20;;;10.85;;
38312;SDS011;24114;52.260;6.714;2023-04-29T09:52:08;12.00;;;10.80;;
38312;SDS011;24114;52.260;6.714;2023-04-29T09:54:40;13.93;;;10.07;;
38312;SDS011;24114;52.260;6.714;2023-04-29T09:57:10;11.98;;;9.75;;
38312;SDS011;24114;52.260;6.714;2023-04-29T09:59:41;14.32;;;10.95;;
38312;SDS011;24114;52.260;6.714;2023-04-29T10:02:12;11.20;;;9.90;;
38312;SDS011;24114;52.260;6.714;2023-04-29T10:04:43;10.88;;;9.15;;
38312;SDS011;24114;52.260;6.714;2023-04-29T10:07:14;16.33;;;10.38;;
38312;SDS011;24114;52.260;6.714;2023-04-29T10:09:47;11.25;;;9.90;;
38312;SDS011;24114;52.260;6.714;2023-04-29T10:12:18;10.45;;;9.20;;
38312;SDS011;24114;52.260;6.714;2023-04-29T10:14:47;11.80;;;9.67;;
38312;SDS011;24114;52.260;6.714;2023-04-29T10:17:23;10.70;;;9.40;;
38312;SDS011;24114;52.260;6.714;2023-04-29T10:19:56;11.13;;;9.43;;
38312;SDS011;24114;52.260;6.714;2023-04-29T10:22:32;10.98;;;9.55;;
38312;SDS011;24114;52.260;6.714;2023-04-29T10:25:05;11.82;;;9.43;;
38312;SDS011;24114;52.260;6.714;2023-04-29T10:27:34;10.63;;;8.90;;
38312;SDS011;24114;52.260;6.714;2023-04-29T10:30:05;10.02;;;9.02;;
38312;SDS011;24114;52.260;6.714;2023-04-29T10:32:36;10.13;;;8.00;;
38312;SDS011;24114;52.260;6.714;2023-04-29T10:35:16;7.13;;;6.43;;
38312;SDS011;24114;52.260;6.714;2023-04-29T10:37:46;8.03;;;6.60;;
38312;SDS011;24114;52.260;6.714;2023-04-29T10:40:16;7.30;;;6.55;;
38312;SDS011;24114;52.260;6.714;2023-04-29T10:42:47;7.75;;;6.95;;
38312;SDS011;24114;52.260;6.714;2023-04-29T10:48:55;8.48;;;7.60;;
38312;SDS011;24114;52.260;6.714;2023-04-29T10:51:28;8.65;;;7.40;;
38312;SDS011;24114;52.260;6.714;2023-04-29T10:53:58;10.52;;;7.53;;
38312;SDS011;24114;52.260;6.714;2023-04-29T10:56:36;8.57;;;7.78;;
38312;SDS011;24114;52.260;6.714;2023-04-29T10:59:08;9.18;;;7.72;;
38312;SDS011;24114;52.260;6.714;2023-04-29T11:01:42;7.93;;;7.13;;
38312;SDS011;24114;52.260;6.714;2023-04-29T11:04:11;8.45;;;7.50;;
38312;SDS011;24114;52.260;6.714;2023-04-29T11:06:41;7.18;;;6.40;;
38312;SDS011;24114;52.260;6.714;2023-04-29T11:09:13;7.82;;;6.50;;
38312;SDS011;24114;52.260;6.714;2023-04-29T11:11:43;6.50;;;5.90;;
38312;SDS011;24114;52.260;6.714;2023-04-29T11:14:14;6.18;;;5.57;;
38312;SDS011;24114;52.260;6.714;2023-04-29T11:16:47;6.88;;;6.18;;
38312;SDS011;24114;52.260;6.714;2023-04-29T11:19:15;6.90;;;6.22;;
38312;SDS011;24114;52.260;6.714;2023-04-29T11:21:44;6.95;;;5.70;;
38312;SDS011;24114;52.260;6.714;2023-04-29T11:24:13;6.43;;;5.82;;
38312;SDS011;24114;52.260;6.714;2023-04-29T11:26:42;8.40;;;6.57;;
38312;SDS011;24114;52.260;6.714;2023-04-29T11:29:11;6.80;;;6.03;;
38312;SDS011;24114;52.260;6.714;2023-04-29T11:31:39;7.65;;;6.20;;
38312;SDS011;24114;52.260;6.714;2023-04-29T11:34:08;7.07;;;5.30;;
38312;SDS011;24114;52.260;6.714;2023-04-29T11:36:36;5.55;;;4.90;;
38312;SDS011;24114;52.260;6.714;2023-04-29T11:39:04;5.85;;;5.28;;
38312;SDS011;24114;52.260;6.714;2023-04-29T11:41:34;5.57;;;5.07;;
38312;SDS011;24114;52.260;6.714;2023-04-29T11:44:02;6.18;;;4.95;;
38312;SDS011;24114;52.260;6.714;2023-04-29T11:46:32;6.28;;;5.68;;
38312;SDS011;24114;52.260;6.714;2023-04-29T11:49:00;5.20;;;4.80;;
38312;SDS011;24114;52.260;6.714;2023-04-29T11:51:29;6.38;;;5.13;;
38312;SDS011;24114;52.260;6.714;2023-04-29T11:53:57;6.10;;;5.35;;
38312;SDS011;24114;52.260;6.714;2023-04-29T11:56:25;5.03;;;4.53;;
38312;SDS011;24114;52.260;6.714;2023-04-29T11:58:53;5.35;;;4.85;;
38312;SDS011;24114;52.260;6.714;2023-04-29T12:01:22;5.78;;;5.18;;
38312;SDS011;24114;52.260;6.714;2023-04-29T12:03:50;5.95;;;5.43;;
38312;SDS011;24114;52.260;6.714;2023-04-29T12:06:18;5.10;;;4.57;;
38312;SDS011;24114;52.260;6.714;2023-04-29T12:08:47;5.07;;;4.40;;
38312;SDS011;24114;52.260;6.714;2023-04-29T12:11:15;4.85;;;4.00;;
38312;SDS011;24114;52.260;6.714;2023-04-29T12:13:45;4.78;;;3.55;;
38312;SDS011;24114;52.260;6.714;2023-04-29T12:16:13;3.60;;;2.70;;
38312;SDS011;24114;52.260;6.714;2023-04-29T12:18:40;4.38;;;3.60;;
38312;SDS011;24114;52.260;6.714;2023-04-29T12:21:08;4.40;;;3.38;;
38312;SDS011;24114;52.260;6.714;2023-04-29T12:23:36;4.40;;;4.00;;
38312;SDS011;24114;52.260;6.714;2023-04-29T12:26:05;4.97;;;4.57;;
38312;SDS011;24114;52.260;6.714;2023-04-29T12:28:34;4.93;;;4.43;;
38312;SDS011;24114;52.260;6.714;2023-04-29T12:31:02;5.00;;;4.50;;
38312;SDS011;24114;52.260;6.714;2023-04-29T12:33:33;4.50;;;4.00;;
38312;SDS011;24114;52.260;6.714;2023-04-29T12:36:01;4.35;;;3.83;;
38312;SDS011;24114;52.260;6.714;2023-04-29T12:38:30;7.28;;;4.22;;
38312;SDS011;24114;52.260;6.714;2023-04-29T12:40:59;4.00;;;3.45;;
38312;SDS011;24114;52.260;6.714;2023-04-29T12:43:29;3.63;;;3.28;;
38312;SDS011;24114;52.260;6.714;2023-04-29T12:45:59;3.77;;;3.33;;
38312;SDS011;24114;52.260;6.714;2023-04-29T12:48:28;4.37;;;3.10;;
38312;SDS011;24114;52.260;6.714;2023-04-29T12:50:59;4.40;;;3.07;;
38312;SDS011;24114;52.260;6.714;2023-04-29T12:53:28;3.00;;;2.33;;
38312;SDS011;24114;52.260;6.714;2023-04-29T12:55:56;3.10;;;2.78;;
38312;SDS011;24114;52.260;6.714;2023-04-29T12:58:27;2.70;;;2.35;;
38312;SDS011;24114;52.260;6.714;2023-04-29T13:00:56;4.63;;;3.20;;
38312;SDS011;24114;52.260;6.714;2023-04-29T13:03:24;4.93;;;3.63;;
38312;SDS011;24114;52.260;6.714;2023-04-29T13:05:52;4.65;;;3.55;;
38312;SDS011;24114;52.260;6.714;2023-04-29T13:08:20;4.37;;;3.93;;
38312;SDS011;24114;52.260;6.714;2023-04-29T13:13:22;3.85;;;2.75;;
38312;SDS011;24114;52.260;6.714;2023-04-29T13:15:50;3.47;;;2.50;;
38312;SDS011;24114;52.260;6.714;2023-04-29T13:18:18;2.88;;;2.40;;
38312;SDS011;24114;52.260;6.714;2023-04-29T13:20:46;4.55;;;2.88;;
38312;SDS011;24114;52.260;6.714;2023-04-29T13:23:13;4.97;;;2.88;;
38312;SDS011;24114;52.260;6.714;2023-04-29T13:25:41;4.28;;;3.00;;
38312;SDS011;24114;52.260;6.714;2023-04-29T13:28:09;4.38;;;3.10;;
38312;SDS011;24114;52.260;6.714;2023-04-29T13:30:39;2.90;;;2.60;;
38312;SDS011;24114;52.260;6.714;2023-04-29T13:33:07;2.72;;;2.05;;
38312;SDS011;24114;52.260;6.714;2023-04-29T13:35:38;3.88;;;2.42;;
38312;SDS011;24114;52.260;6.714;2023-04-29T13:38:07;4.13;;;2.67;;
38312;SDS011;24114;52.260;6.714;2023-04-29T13:40:35;4.32;;;2.97;;
38312;SDS011;24114;52.260;6.714;2023-04-29T13:43:11;3.83;;;3.45;;
38312;SDS011;24114;52.260;6.714;2023-04-29T13:45:57;3.83;;;2.65;;
38312;SDS011;24114;52.260;6.714;2023-04-29T13:48:25;3.17;;;2.60;;
38312;SDS011;24114;52.260;6.714;2023-04-29T13:51:13;2.70;;;2.25;;
38312;SDS011;24114;52.260;6.714;2023-04-29T13:54:01;3.05;;;2.30;;
38312;SDS011;24114;52.260;6.714;2023-04-29T13:56:32;3.03;;;2.45;;
38312;SDS011;24114;52.260;6.714;2023-04-29T13:59:02;3.55;;;2.80;;
38312;SDS011;24114;52.260;6.714;2023-04-29T14:01:35;7.15;;;3.40;;
38312;SDS011;24114;52.260;6.714;2023-04-29T14:04:22;3.58;;;2.72;;
38312;SDS011;24114;52.260;6.714;2023-04-29T14:06:51;3.80;;;2.70;;
38312;SDS011;24114;52.260;6.714;2023-04-29T14:09:19;3.92;;;2.33;;
38312;SDS011;24114;52.260;6.714;2023-04-29T14:11:49;2.65;;;2.22;;
38312;SDS011;24114;52.260;6.714;2023-04-29T14:14:19;4.18;;;2.50;;
38312;SDS011;24114;52.260;6.714;2023-04-29T14:16:48;4.17;;;2.43;;
38312;SDS011;24114;52.260;6.714;2023-04-29T14:19:16;4.00;;;2.60;;
38312;SDS011;24114;52.260;6.714;2023-04-29T14:21:44;4.30;;;2.95;;
38312;SDS011;24114;52.260;6.714;2023-04-29T14:24:13;3.15;;;2.50;;
38312;SDS011;24114;52.260;6.714;2023-04-29T14:26:41;6.50;;;2.50;;
38312;SDS011;24114;52.260;6.714;2023-04-29T14:29:09;3.03;;;2.30;;
38312;SDS011;24114;52.260;6.714;2023-04-29T14:31:38;3.57;;;2.00;;
38312;SDS011;24114;52.260;6.714;2023-04-29T14:34:08;2.67;;;1.52;;
38312;SDS011;24114;52.260;6.714;2023-04-29T14:36:35;2.72;;;1.70;;
38312;SDS011;24114;52.260;6.714;2023-04-29T14:39:03;2.10;;;1.60;;
38312;SDS011;24114;52.260;6.714;2023-04-29T14:41:31;2.17;;;1.40;;
38312;SDS011;24114;52.260;6.714;2023-04-29T14:43:59;2.80;;;1.30;;
38312;SDS011;24114;52.260;6.714;2023-04-29T14:46:27;2.40;;;1.50;;